createdAt,value
2018-02-14T00:01:39.353Z,13.35
2018-02-14T00:04:06.875Z,14.60
2018-02-14T00:06:34.345Z,13.02
2018-02-14T00:09:01.907Z,14.27
2018-02-14T00:11:29.405Z,14.30
2018-02-14T00:13:56.922Z,12.82
2018-02-14T00:16:24.394Z,13.75
2018-02-14T00:18:51.908Z,13.70
2018-02-14T00:21:19.385Z,12.57
2018-02-14T00:23:46.864Z,13.45
2018-02-14T00:26:14.367Z,13.80
2018-02-14T00:28:41.860Z,13.10
2018-02-14T00:31:09.985Z,13.90
2018-02-14T00:33:37.598Z,12.88
2018-02-14T00:36:05.131Z,12.85
2018-02-14T00:38:33.156Z,12.93
2018-02-14T00:41:00.643Z,12.00
2018-02-14T00:43:28.192Z,12.23
2018-02-14T00:45:55.672Z,12.70
2018-02-14T00:48:23.189Z,12.40
2018-02-14T00:50:50.662Z,13.02
2018-02-14T00:53:18.143Z,12.95
2018-02-14T00:55:45.712Z,13.55
2018-02-14T00:58:13.215Z,12.55
2018-02-14T01:00:40.774Z,12.50
2018-02-14T01:03:08.320Z,11.90
2018-02-14T01:05:35.829Z,12.18
2018-02-14T01:08:03.315Z,12.77
2018-02-14T01:10:30.831Z,12.45
2018-02-14T01:12:58.560Z,12.32
2018-02-14T01:15:26.093Z,12.95
2018-02-14T01:17:53.622Z,12.07
2018-02-14T01:20:26.691Z,11.50
2018-02-14T01:22:54.165Z,12.00
2018-02-14T01:25:21.650Z,11.35
2018-02-14T01:27:49.167Z,11.45
2018-02-14T01:30:16.649Z,11.45
2018-02-14T01:32:44.159Z,12.50
2018-02-14T01:35:11.658Z,11.30
2018-02-14T01:37:39.224Z,11.75
2018-02-14T01:40:06.816Z,12.80
2018-02-14T01:42:34.298Z,14.10
2018-02-14T01:45:01.829Z,12.60
2018-02-14T01:47:29.860Z,12.57
2018-02-14T01:49:58.597Z,12.52
2018-02-14T01:52:26.095Z,13.23
2018-02-14T01:54:53.603Z,14.02
2018-02-14T01:57:21.273Z,12.60
2018-02-14T01:59:48.790Z,12.40
2018-02-14T02:02:16.287Z,11.95
2018-02-14T02:04:43.812Z,12.52
2018-02-14T02:07:11.429Z,12.65
2018-02-14T02:09:38.978Z,11.95
2018-02-14T02:12:06.506Z,13.43
2018-02-14T02:14:34.610Z,12.75
2018-02-14T02:17:02.125Z,12.50
2018-02-14T02:19:29.654Z,13.05
2018-02-14T02:21:57.139Z,12.52
2018-02-14T02:24:24.652Z,12.52
2018-02-14T02:26:52.135Z,12.90
2018-02-14T02:29:19.654Z,12.70
2018-02-14T02:31:47.145Z,13.52
2018-02-14T02:34:14.642Z,12.40
2018-02-14T02:36:42.145Z,12.68
2018-02-14T02:39:21.539Z,12.75
2018-02-14T02:41:49.148Z,12.30
2018-02-14T02:44:16.634Z,12.60
2018-02-14T02:46:44.132Z,12.85
2018-02-14T02:49:11.681Z,12.50
2018-02-14T02:51:39.209Z,13.27
2018-02-14T02:54:06.685Z,12.77
2018-02-14T02:56:34.223Z,13.23
2018-02-14T02:59:01.738Z,14.65
2018-02-14T03:01:29.253Z,14.50
2018-02-14T03:03:56.760Z,15.25
2018-02-14T03:06:24.251Z,14.23
2018-02-14T03:08:51.749Z,14.23
2018-02-14T03:11:19.267Z,13.45
2018-02-14T03:13:47.352Z,13.73
2018-02-14T03:16:14.849Z,14.45
2018-02-14T03:18:42.462Z,13.65
2018-02-14T03:21:10.079Z,14.52
2018-02-14T03:23:37.606Z,13.98
2018-02-14T03:26:05.118Z,13.62
2018-02-14T03:28:32.598Z,14.05
2018-02-14T03:31:00.104Z,14.00
2018-02-14T03:33:27.601Z,13.60
2018-02-14T03:35:55.125Z,13.13
2018-02-14T03:38:22.607Z,14.27
2018-02-14T03:40:50.140Z,14.07
2018-02-14T03:43:17.633Z,12.95
2018-02-14T03:45:45.110Z,12.75
2018-02-14T03:48:12.623Z,13.60
2018-02-14T03:50:40.144Z,13.13
2018-02-14T03:53:07.838Z,12.05
2018-02-14T03:55:35.318Z,12.95
2018-02-14T03:58:02.839Z,13.43
2018-02-14T04:00:30.319Z,13.68
2018-02-14T04:02:57.866Z,13.85
2018-02-14T04:05:25.396Z,12.98
2018-02-14T04:07:53.519Z,14.00
2018-02-14T04:10:21.031Z,13.55
2018-02-14T04:12:48.523Z,12.90
2018-02-14T04:15:16.151Z,13.70
2018-02-14T04:17:43.696Z,13.15
2018-02-14T04:20:11.242Z,14.50
2018-02-14T04:22:38.813Z,13.25
2018-02-14T04:25:06.381Z,13.82
2018-02-14T04:27:33.889Z,13.40
2018-02-14T04:30:01.398Z,13.77
2018-02-14T04:32:28.968Z,14.38
2018-02-14T04:34:56.450Z,14.60
2018-02-14T04:37:23.946Z,15.27
2018-02-14T04:39:51.427Z,13.73
2018-02-14T04:42:18.937Z,15.32
2018-02-14T04:44:46.429Z,15.48
2018-02-14T04:47:13.963Z,16.80
2018-02-14T04:49:41.448Z,16.80
2018-02-14T04:52:09.001Z,18.05
2018-02-14T04:54:36.548Z,15.30
2018-02-14T04:57:04.067Z,15.85
2018-02-14T04:59:31.565Z,14.90
2018-02-14T05:01:59.390Z,17.30
2018-02-14T05:04:27.051Z,14.55
2018-02-14T05:06:54.886Z,14.55
2018-02-14T05:09:22.400Z,15.68
2018-02-14T05:11:49.894Z,15.20
2018-02-14T05:14:17.454Z,14.57
2018-02-14T05:16:44.944Z,15.82
2018-02-14T05:19:12.428Z,14.85
2018-02-14T05:21:40.482Z,13.80
2018-02-14T05:24:07.971Z,14.05
2018-02-14T05:26:35.478Z,15.75
2018-02-14T05:29:02.997Z,14.13
2018-02-14T05:31:30.487Z,16.33
2018-02-14T05:33:58.080Z,16.45
2018-02-14T05:36:25.724Z,14.87
2018-02-14T05:38:53.241Z,15.88
2018-02-14T05:41:20.734Z,14.23
2018-02-14T05:43:48.383Z,14.00
2018-02-14T05:46:15.915Z,15.50
2018-02-14T05:48:43.510Z,15.00
2018-02-14T05:51:11.027Z,15.45
2018-02-14T05:53:38.641Z,15.90
2018-02-14T05:56:06.246Z,15.10
2018-02-14T05:58:33.755Z,15.93
2018-02-14T06:01:01.317Z,15.60
2018-02-14T06:03:28.814Z,14.95
2018-02-14T06:05:56.382Z,14.93
2018-02-14T06:08:23.879Z,14.60
2018-02-14T06:10:51.397Z,15.38
2018-02-14T06:13:18.918Z,15.15
2018-02-14T06:15:46.400Z,15.75
2018-02-14T06:18:13.960Z,16.35
2018-02-14T06:20:42.903Z,16.20
2018-02-14T06:23:10.413Z,14.32
2018-02-14T06:25:38.038Z,14.65
2018-02-14T06:28:05.579Z,13.80
2018-02-14T06:30:33.091Z,16.55
2018-02-14T06:33:00.747Z,17.52
2018-02-14T06:35:28.276Z,15.00
2018-02-14T06:37:55.904Z,17.10
2018-02-14T06:40:23.422Z,17.25
2018-02-14T06:42:51.690Z,17.27
2018-02-14T06:45:19.270Z,16.83
2018-02-14T06:47:46.777Z,15.98
2018-02-14T06:50:14.683Z,15.70
2018-02-14T06:52:42.191Z,17.10
2018-02-14T06:55:09.665Z,16.70
2018-02-14T06:57:37.228Z,16.10
2018-02-14T07:00:04.750Z,17.60
2018-02-14T07:02:32.280Z,15.20
2018-02-14T07:04:59.855Z,16.65
2018-02-14T07:07:27.389Z,17.52
2018-02-14T07:09:54.941Z,20.37
2018-02-14T07:12:22.476Z,17.12
2018-02-14T07:14:50.007Z,18.17
2018-02-14T07:17:17.611Z,18.65
2018-02-14T07:19:45.301Z,17.77
2018-02-14T07:22:12.862Z,16.67
2018-02-14T07:24:40.456Z,17.73
2018-02-14T07:27:08.100Z,17.87
2018-02-14T07:29:35.777Z,18.95
2018-02-14T07:32:03.278Z,19.62
2018-02-14T07:34:30.783Z,20.10
2018-02-14T07:36:58.307Z,19.20
2018-02-14T07:39:25.841Z,19.35
2018-02-14T07:41:53.394Z,18.55
2018-02-14T07:44:20.954Z,18.77
2018-02-14T07:46:48.544Z,18.25
2018-02-14T07:49:16.206Z,18.12
2018-02-14T07:51:43.787Z,19.27
2018-02-14T07:54:11.280Z,18.05
2018-02-14T07:56:38.777Z,20.40
2018-02-14T07:59:06.850Z,19.55
2018-02-14T08:01:34.410Z,19.83
2018-02-14T08:04:02.014Z,19.60
2018-02-14T08:06:29.644Z,19.67
2018-02-14T08:08:57.246Z,19.60
2018-02-14T08:11:24.771Z,19.67
2018-02-14T08:13:52.285Z,18.93
2018-02-14T08:16:19.810Z,19.10
2018-02-14T08:18:47.329Z,21.03
2018-02-14T08:21:14.939Z,20.63
2018-02-14T08:23:42.475Z,19.20
2018-02-14T08:26:10.019Z,20.50
2018-02-14T08:28:37.534Z,21.00
2018-02-14T08:31:05.016Z,19.07
2018-02-14T08:33:33.353Z,22.20
2018-02-14T08:36:00.854Z,19.70
2018-02-14T08:38:28.368Z,20.43
2018-02-14T08:40:55.878Z,20.63
2018-02-14T08:43:23.407Z,22.03
2018-02-14T08:45:50.998Z,22.07
2018-02-14T08:48:18.566Z,22.20
2018-02-14T08:50:46.077Z,20.87
2018-02-14T08:53:13.620Z,22.23
2018-02-14T08:55:41.144Z,21.37
2018-02-14T08:58:08.668Z,21.62
2018-02-14T09:00:36.210Z,21.00
2018-02-14T09:03:03.695Z,22.00
2018-02-14T09:05:31.227Z,21.37
2018-02-14T09:07:58.707Z,21.53
2018-02-14T09:10:26.260Z,19.83
2018-02-14T09:12:53.862Z,19.80
2018-02-14T09:15:21.367Z,20.00
2018-02-14T09:17:48.900Z,19.65
2018-02-14T09:20:16.401Z,19.40
2018-02-14T09:22:43.915Z,18.92
2018-02-14T09:25:11.413Z,19.55
2018-02-14T09:27:39.033Z,18.77
2018-02-14T09:30:06.561Z,19.35
2018-02-14T09:32:34.287Z,19.25
2018-02-14T09:35:01.785Z,19.75
2018-02-14T09:37:29.289Z,19.05
2018-02-14T09:39:57.288Z,19.85
2018-02-14T09:42:24.808Z,18.90
2018-02-14T09:44:52.321Z,18.92
2018-02-14T09:47:19.849Z,19.80
2018-02-14T09:49:47.367Z,20.17
2018-02-14T09:52:14.842Z,20.23
2018-02-14T09:54:42.598Z,19.67
2018-02-14T09:57:10.087Z,18.20
2018-02-14T09:59:37.631Z,21.08
2018-02-14T10:02:05.120Z,19.35
2018-02-14T10:04:32.653Z,20.40
2018-02-14T10:07:00.183Z,21.40
2018-02-14T10:09:27.683Z,20.90
2018-02-14T10:11:55.272Z,20.20
2018-02-14T10:14:22.747Z,21.75
2018-02-14T10:16:50.260Z,22.37
2018-02-14T10:19:17.764Z,20.25
2018-02-14T10:21:45.285Z,20.83
2018-02-14T10:24:12.759Z,20.15
2018-02-14T10:26:40.328Z,21.27
2018-02-14T10:29:07.866Z,22.42
2018-02-14T10:31:35.504Z,20.30
2018-02-14T10:34:03.008Z,19.20
2018-02-14T10:36:30.735Z,20.23
2018-02-14T10:38:58.389Z,20.12
2018-02-14T10:41:25.884Z,19.35
2018-02-14T10:43:53.396Z,19.12
2018-02-14T10:46:20.922Z,20.50
2018-02-14T10:48:48.474Z,21.05
2018-02-14T10:51:16.028Z,20.98
2018-02-14T10:53:43.521Z,19.67
2018-02-14T10:56:11.057Z,19.50
2018-02-14T10:58:39.187Z,20.88
2018-02-14T11:01:06.715Z,20.42
2018-02-14T11:03:39.679Z,20.30
2018-02-14T11:06:13.089Z,18.23
2018-02-14T11:08:41.111Z,19.50
2018-02-14T11:11:08.701Z,19.00
2018-02-14T11:13:36.337Z,19.80
2018-02-14T11:16:03.826Z,18.35
2018-02-14T11:18:31.453Z,19.40
2018-02-14T11:20:59.013Z,20.60
2018-02-14T11:23:26.669Z,20.12
2018-02-14T11:25:54.174Z,20.67
2018-02-14T11:28:21.711Z,20.30
2018-02-14T11:30:49.233Z,20.10
2018-02-14T11:33:16.718Z,20.97
2018-02-14T11:35:44.283Z,21.77
2018-02-14T11:38:12.504Z,19.57
2018-02-14T11:40:40.008Z,20.40
2018-02-14T11:43:07.544Z,21.40
2018-02-14T11:45:35.057Z,21.83
2018-02-14T11:48:02.558Z,21.10
2018-02-14T11:50:30.095Z,20.77
2018-02-14T11:52:57.698Z,21.90
2018-02-14T11:55:25.278Z,20.90
2018-02-14T11:57:52.977Z,21.90
2018-02-14T12:00:20.695Z,21.77
2018-02-14T12:02:48.242Z,21.23
2018-02-14T12:05:15.787Z,20.30
2018-02-14T12:07:43.337Z,20.90
2018-02-14T12:10:10.873Z,19.00
2018-02-14T12:12:38.379Z,19.00
2018-02-14T12:15:05.891Z,21.33
2018-02-14T12:17:33.401Z,19.63
2018-02-14T12:20:00.950Z,19.57
2018-02-14T12:22:28.465Z,19.70
2018-02-14T12:24:56.001Z,20.77
2018-02-14T12:27:23.544Z,19.90
2018-02-14T12:29:51.667Z,19.70
2018-02-14T12:32:19.273Z,19.23
2018-02-14T12:34:46.793Z,19.13
2018-02-14T12:37:14.354Z,19.90
2018-02-14T12:39:41.903Z,18.37
2018-02-14T12:42:09.480Z,18.20
2018-02-14T12:44:36.997Z,17.70
2018-02-14T12:47:04.556Z,17.57
2018-02-14T12:49:32.048Z,18.20
2018-02-14T12:51:59.559Z,17.50
2018-02-14T12:54:27.075Z,16.80
2018-02-14T12:56:54.575Z,16.97
2018-02-14T12:59:22.108Z,16.20
2018-02-14T13:01:49.589Z,16.80
2018-02-14T13:04:17.210Z,17.10
2018-02-14T13:06:44.703Z,18.00
2018-02-14T13:09:12.282Z,16.23
2018-02-14T13:11:39.817Z,17.10
2018-02-14T13:14:07.346Z,15.60
2018-02-14T13:16:35.648Z,15.83
2018-02-14T13:19:03.269Z,15.50
2018-02-14T13:21:30.814Z,15.97
2018-02-14T13:23:58.362Z,16.60
2018-02-14T13:26:25.902Z,15.47
2018-02-14T13:28:53.408Z,13.70
2018-02-14T13:31:20.953Z,13.30
2018-02-14T13:33:48.512Z,13.93
2018-02-14T13:36:16.128Z,15.03
2018-02-14T13:38:43.639Z,15.27
2018-02-14T13:41:11.171Z,14.50
2018-02-14T13:43:38.676Z,14.33
2018-02-14T13:46:06.167Z,14.63
2018-02-14T13:48:33.683Z,14.40
2018-02-14T13:51:01.209Z,13.80
2018-02-14T13:53:28.773Z,12.77
2018-02-14T13:55:56.319Z,14.17
2018-02-14T13:58:25.066Z,14.30
2018-02-14T14:00:52.562Z,13.30
2018-02-14T14:03:20.099Z,13.40
2018-02-14T14:05:47.757Z,13.90
2018-02-14T14:08:15.285Z,13.03
2018-02-14T14:10:42.788Z,14.07
2018-02-14T14:13:10.283Z,12.90
2018-02-14T14:15:37.809Z,12.03
2018-02-14T14:18:05.298Z,12.20
2018-02-14T14:20:32.906Z,12.80
2018-02-14T14:23:00.454Z,11.90
2018-02-14T14:25:28.126Z,11.10
2018-02-14T14:27:55.652Z,10.70
2018-02-14T14:30:23.268Z,10.73
2018-02-14T14:32:50.900Z,10.40
2018-02-14T14:35:18.448Z,10.30
2018-02-14T14:37:46.057Z,10.53
2018-02-14T14:40:13.569Z,9.87
2018-02-14T14:42:41.118Z,10.57
2018-02-14T14:45:08.637Z,11.00
2018-02-14T14:47:37.414Z,10.10
2018-02-14T14:50:04.959Z,10.83
2018-02-14T14:52:32.584Z,9.50
2018-02-14T14:55:00.282Z,9.13
2018-02-14T14:57:27.814Z,9.63
2018-02-14T14:59:55.339Z,9.70
2018-02-14T15:02:22.837Z,9.90
2018-02-14T15:04:50.559Z,10.70
2018-02-14T15:07:18.139Z,9.93
2018-02-14T15:09:45.686Z,9.97
2018-02-14T15:12:13.219Z,9.90
2018-02-14T15:14:40.769Z,9.37
2018-02-14T15:17:08.278Z,10.50
2018-02-14T15:19:35.785Z,9.27
2018-02-14T15:22:03.428Z,8.33
2018-02-14T15:24:30.928Z,8.90
2018-02-14T15:26:58.516Z,8.67
2018-02-14T15:29:26.036Z,8.93
2018-02-14T15:31:53.575Z,9.00
2018-02-14T15:34:21.081Z,8.23
2018-02-14T15:36:48.555Z,8.63
2018-02-14T15:39:16.101Z,7.40
2018-02-14T15:41:43.667Z,7.47
2018-02-14T15:44:11.199Z,7.23
2018-02-14T15:46:38.721Z,8.20
2018-02-14T15:49:06.284Z,7.83
2018-02-14T15:51:33.786Z,8.60
2018-02-14T15:54:01.335Z,8.10
2018-02-14T15:56:28.851Z,8.90
2018-02-14T15:58:56.414Z,8.53
2018-02-14T16:01:23.955Z,7.93
2018-02-14T16:03:51.552Z,7.90
2018-02-14T16:06:19.083Z,7.60
2018-02-14T16:08:46.575Z,8.57
2018-02-14T16:11:14.076Z,8.53
2018-02-14T16:13:41.593Z,8.77
2018-02-14T16:16:09.089Z,8.53
2018-02-14T16:18:36.707Z,8.93
2018-02-14T16:21:04.220Z,8.37
2018-02-14T16:23:31.754Z,8.90
2018-02-14T16:25:59.286Z,9.10
2018-02-14T16:28:26.908Z,8.33
2018-02-14T16:30:54.434Z,8.63
2018-02-14T16:33:21.930Z,8.70
2018-02-14T16:35:49.529Z,8.43
2018-02-14T16:38:17.060Z,10.57
2018-02-14T16:40:44.649Z,9.20
2018-02-14T16:43:12.250Z,9.30
2018-02-14T16:45:39.839Z,9.30
2018-02-14T16:48:07.388Z,10.13
2018-02-14T16:50:34.883Z,9.77
2018-02-14T16:53:02.398Z,9.63
2018-02-14T16:55:29.932Z,10.75
2018-02-14T16:57:57.507Z,9.43
2018-02-14T17:00:25.004Z,9.80
2018-02-14T17:02:52.555Z,9.80
2018-02-14T17:05:20.084Z,10.18
2018-02-14T17:07:47.637Z,9.15
2018-02-14T17:10:15.146Z,9.13
2018-02-14T17:12:42.666Z,8.98
2018-02-14T17:15:10.193Z,8.85
2018-02-14T17:17:37.723Z,8.65
2018-02-14T17:20:05.269Z,9.68
2018-02-14T17:22:32.750Z,9.13
2018-02-14T17:25:00.304Z,8.02
2018-02-14T17:27:27.828Z,9.50
2018-02-14T17:29:55.403Z,9.73
2018-02-14T17:32:23.028Z,9.07
2018-02-14T17:34:50.602Z,9.10
2018-02-14T17:37:18.184Z,9.10
2018-02-14T17:39:45.739Z,9.55
2018-02-14T17:42:13.392Z,9.10
2018-02-14T17:44:40.934Z,10.18
2018-02-14T17:47:09.011Z,9.93
2018-02-14T17:49:37.167Z,10.10
2018-02-14T17:52:04.648Z,9.25
2018-02-14T17:54:33.043Z,11.15
2018-02-14T17:57:00.540Z,10.75
2018-02-14T17:59:28.097Z,10.60
2018-02-14T18:01:55.582Z,10.48
2018-02-14T18:04:23.128Z,10.45
2018-02-14T18:06:50.632Z,10.32
2018-02-14T18:09:18.169Z,9.73
2018-02-14T18:11:45.667Z,10.80
2018-02-14T18:14:13.183Z,10.15
2018-02-14T18:16:40.702Z,9.43
2018-02-14T18:19:08.217Z,9.80
2018-02-14T18:21:35.768Z,9.95
2018-02-14T18:24:03.264Z,10.15
2018-02-14T18:26:30.809Z,10.75
2018-02-14T18:28:58.338Z,11.60
2018-02-14T18:31:25.936Z,11.82
2018-02-14T18:33:53.472Z,12.10
2018-02-14T18:36:21.015Z,11.82
2018-02-14T18:38:48.514Z,12.70
2018-02-14T18:41:16.617Z,11.85
2018-02-14T18:43:44.197Z,11.95
2018-02-14T18:46:14.218Z,11.93
2018-02-14T18:48:43.451Z,12.02
2018-02-14T18:51:11.321Z,11.80
2018-02-14T18:53:40.400Z,13.38
2018-02-14T18:56:09.130Z,13.90
2018-02-14T18:58:36.807Z,12.73
2018-02-14T19:01:04.320Z,14.50
2018-02-14T19:03:31.849Z,13.30
2018-02-14T19:05:59.370Z,14.13
2018-02-14T19:08:26.898Z,12.73
2018-02-14T19:10:54.452Z,15.18
2018-02-14T19:13:21.973Z,14.15
2018-02-14T19:15:49.596Z,14.20
2018-02-14T19:18:17.081Z,12.70
2018-02-14T19:20:44.578Z,12.80
2018-02-14T19:23:12.179Z,13.62
2018-02-14T19:25:39.753Z,13.15
2018-02-14T19:28:07.281Z,11.95
2018-02-14T19:30:34.771Z,11.05
2018-02-14T19:33:02.335Z,11.98
2018-02-14T19:35:29.908Z,11.77
2018-02-14T19:37:58.041Z,10.98
2018-02-14T19:40:26.055Z,12.30
2018-02-14T19:42:53.584Z,12.20
2018-02-14T19:45:21.111Z,12.43
2018-02-14T19:47:48.628Z,11.90
2018-02-14T19:50:16.170Z,13.62
2018-02-14T19:52:43.677Z,13.18
2018-02-14T19:55:11.226Z,12.77
2018-02-14T19:57:38.737Z,13.20
2018-02-14T20:00:06.230Z,13.45
2018-02-14T20:02:33.801Z,13.40
2018-02-14T20:05:01.367Z,14.40
2018-02-14T20:07:28.900Z,13.57
2018-02-14T20:09:57.164Z,14.70
2018-02-14T20:12:24.705Z,14.50
2018-02-14T20:14:52.218Z,13.85
2018-02-14T20:17:19.799Z,13.70
2018-02-14T20:19:47.305Z,14.20
2018-02-14T20:22:14.841Z,13.65
2018-02-14T20:24:42.356Z,12.90
2018-02-14T20:27:10.661Z,13.45
2018-02-14T20:29:38.264Z,13.68
2018-02-14T20:32:05.822Z,12.40
2018-02-14T20:34:33.374Z,13.05
2018-02-14T20:37:01.581Z,12.10
2018-02-14T20:39:29.084Z,11.25
2018-02-14T20:41:56.599Z,11.48
2018-02-14T20:44:24.123Z,12.40
2018-02-14T20:46:51.611Z,14.10
2018-02-14T20:49:19.134Z,12.43
2018-02-14T20:51:47.300Z,13.43
2018-02-14T20:54:14.841Z,13.50
2018-02-14T20:56:42.324Z,14.02
2018-02-14T20:59:10.461Z,14.50
2018-02-14T21:01:37.982Z,12.90
2018-02-14T21:04:05.525Z,13.13
2018-02-14T21:06:33.111Z,12.77
2018-02-14T21:09:00.607Z,13.70
2018-02-14T21:11:28.168Z,14.85
2018-02-14T21:13:55.670Z,14.63
2018-02-14T21:16:23.201Z,14.95
2018-02-14T21:18:50.780Z,14.50
2018-02-14T21:21:18.338Z,13.77
2018-02-14T21:23:45.867Z,14.70
2018-02-14T21:26:13.387Z,15.00
2018-02-14T21:28:40.898Z,16.00
2018-02-14T21:31:08.418Z,15.60
2018-02-14T21:33:35.927Z,14.70
2018-02-14T21:36:03.416Z,14.85
2018-02-14T21:38:30.961Z,15.95
2018-02-14T21:40:58.578Z,16.02
2018-02-14T21:43:26.171Z,15.10
2018-02-14T21:45:54.601Z,14.30
2018-02-14T21:48:22.121Z,15.73
2018-02-14T21:50:49.615Z,17.50
2018-02-14T21:53:17.114Z,19.02
2018-02-14T21:55:44.625Z,18.58
2018-02-14T21:58:13.548Z,18.75
2018-02-14T22:00:41.048Z,19.75
2018-02-14T22:03:08.536Z,18.90
2018-02-14T22:05:36.122Z,19.02
2018-02-14T22:08:03.639Z,17.70
2018-02-14T22:10:31.167Z,18.33
2018-02-14T22:12:58.701Z,20.73
2018-02-14T22:15:26.298Z,16.05
2018-02-14T22:17:54.443Z,15.07
2018-02-14T22:20:21.925Z,18.15
2018-02-14T22:22:49.474Z,14.48
2018-02-14T22:25:16.961Z,17.90
2018-02-14T22:27:44.477Z,16.85
2018-02-14T22:30:11.986Z,15.82
2018-02-14T22:32:39.615Z,20.80
2018-02-14T22:35:07.123Z,11.95
2018-02-14T22:37:34.676Z,17.48
2018-02-14T22:40:02.173Z,17.70
2018-02-14T22:42:29.677Z,17.98
2018-02-14T22:44:57.187Z,17.37
2018-02-14T22:47:24.720Z,15.20
2018-02-14T22:49:52.254Z,16.42
2018-02-14T22:52:19.751Z,14.18
2018-02-14T22:54:47.292Z,13.98
2018-02-14T22:57:14.777Z,14.57
2018-02-14T22:59:42.283Z,13.73
2018-02-14T23:02:09.772Z,16.42
2018-02-14T23:04:37.297Z,15.27
2018-02-14T23:07:04.782Z,16.20
2018-02-14T23:09:32.307Z,15.73
2018-02-14T23:11:59.816Z,16.67
2018-02-14T23:14:27.314Z,16.48
2018-02-14T23:16:54.855Z,16.02
2018-02-14T23:19:22.348Z,17.00
2018-02-14T23:21:49.865Z,14.90
2018-02-14T23:24:17.347Z,13.70
2018-02-14T23:26:44.834Z,15.77
2018-02-14T23:29:12.359Z,15.30
2018-02-14T23:31:39.841Z,15.55
2018-02-14T23:34:07.382Z,15.30
2018-02-14T23:36:34.865Z,16.87
2018-02-14T23:39:02.512Z,15.77
2018-02-14T23:41:30.130Z,14.80
2018-02-14T23:43:57.831Z,15.88
2018-02-14T23:46:25.359Z,14.23
2018-02-14T23:48:52.965Z,16.62
2018-02-14T23:51:20.570Z,14.82
2018-02-14T23:53:48.080Z,14.48
2018-02-14T23:56:15.680Z,15.27
2018-02-14T23:58:43.153Z,15.88
